sensor_id;sensor_type;location;lat;lon;timestamp;P1;durP1;ratioP1;P2;durP2;ratioP2
20084;SDS011;10202;48.474;9.138;2024-01-11T00:02:03;46.23;;;20.50;;
20084;SDS011;10202;48.474;9.138;2024-01-11T00:04:31;45.67;;;21.33;;
20084;SDS011;10202;48.474;9.138;2024-01-11T00:07:01;51.17;;;21.60;;
20084;SDS011;10202;48.474;9.138;2024-01-11T00:09:27;44.53;;;20.50;;
20084;SDS011;10202;48.474;9.138;2024-01-11T00:11:53;42.53;;;20.60;;
20084;SDS011;10202;48.474;9.138;2024-01-11T00:14:20;44.53;;;20.63;;
20084;SDS011;10202;48.474;9.138;2024-01-11T00:16:46;46.57;;;20.83;;
20084;SDS011;10202;48.474;9.138;2024-01-11T00:19:14;44.50;;;21.33;;
20084;SDS011;10202;48.474;9.138;2024-01-11T00:21:39;43.60;;;20.13;;
20084;SDS011;10202;48.474;9.138;2024-01-11T00:24:07;46.60;;;22.03;;
20084;SDS011;10202;48.474;9.138;2024-01-11T00:26:33;45.97;;;21.77;;
20084;SDS011;10202;48.474;9.138;2024-01-11T00:28:58;52.67;;;22.80;;
20084;SDS011;10202;48.474;9.138;2024-01-11T00:31:26;47.47;;;22.17;;
20084;SDS011;10202;48.474;9.138;2024-01-11T00:33:55;45.57;;;21.60;;
20084;SDS011;10202;48.474;9.138;2024-01-11T00:36:22;45.73;;;22.03;;
20084;SDS011;10202;48.474;9.138;2024-01-11T00:38:52;47.67;;;21.27;;
20084;SDS011;10202;48.474;9.138;2024-01-11T00:41:21;51.33;;;23.10;;
20084;SDS011;10202;48.474;9.138;2024-01-11T00:43:52;50.33;;;23.17;;
20084;SDS011;10202;48.474;9.138;2024-01-11T00:46:17;51.57;;;22.53;;
20084;SDS011;10202;48.474;9.138;2024-01-11T00:48:48;46.07;;;22.27;;
20084;SDS011;10202;48.474;9.138;2024-01-11T00:51:15;53.13;;;22.30;;
20084;SDS011;10202;48.474;9.138;2024-01-11T00:53:41;55.57;;;24.40;;
20084;SDS011;10202;48.474;9.138;2024-01-11T00:56:15;48.93;;;24.10;;
20084;SDS011;10202;48.474;9.138;2024-01-11T00:58:46;51.23;;;24.63;;
20084;SDS011;10202;48.474;9.138;2024-01-11T01:01:12;50.33;;;22.03;;
20084;SDS011;10202;48.474;9.138;2024-01-11T01:03:38;56.07;;;25.20;;
20084;SDS011;10202;48.474;9.138;2024-01-11T01:06:04;52.37;;;23.50;;
20084;SDS011;10202;48.474;9.138;2024-01-11T01:08:32;47.43;;;21.00;;
20084;SDS011;10202;48.474;9.138;2024-01-11T01:10:58;50.43;;;22.33;;
20084;SDS011;10202;48.474;9.138;2024-01-11T01:13:26;51.00;;;21.83;;
20084;SDS011;10202;48.474;9.138;2024-01-11T01:15:56;44.27;;;21.73;;
20084;SDS011;10202;48.474;9.138;2024-01-11T01:18:22;48.23;;;20.70;;
20084;SDS011;10202;48.474;9.138;2024-01-11T01:20:52;45.33;;;20.80;;
20084;SDS011;10202;48.474;9.138;2024-01-11T01:23:18;49.37;;;21.70;;
20084;SDS011;10202;48.474;9.138;2024-01-11T01:25:46;48.90;;;20.53;;
20084;SDS011;10202;48.474;9.138;2024-01-11T01:28:13;46.43;;;19.03;;
20084;SDS011;10202;48.474;9.138;2024-01-11T01:30:39;46.37;;;19.97;;
20084;SDS011;10202;48.474;9.138;2024-01-11T01:33:07;46.30;;;19.87;;
20084;SDS011;10202;48.474;9.138;2024-01-11T01:35:35;44.80;;;20.40;;
20084;SDS011;10202;48.474;9.138;2024-01-11T01:38:01;44.73;;;20.50;;
20084;SDS011;10202;48.474;9.138;2024-01-11T01:40:29;49.83;;;22.07;;
20084;SDS011;10202;48.474;9.138;2024-01-11T01:43:00;48.50;;;20.10;;
20084;SDS011;10202;48.474;9.138;2024-01-11T01:45:26;46.60;;;19.20;;
20084;SDS011;10202;48.474;9.138;2024-01-11T01:47:55;43.57;;;20.00;;
20084;SDS011;10202;48.474;9.138;2024-01-11T01:50:20;43.47;;;19.50;;
20084;SDS011;10202;48.474;9.138;2024-01-11T01:52:53;38.73;;;19.30;;
20084;SDS011;10202;48.474;9.138;2024-01-11T01:55:21;44.47;;;19.90;;
20084;SDS011;10202;48.474;9.138;2024-01-11T01:57:47;41.53;;;19.60;;
20084;SDS011;10202;48.474;9.138;2024-01-11T02:00:15;43.07;;;19.87;;
20084;SDS011;10202;48.474;9.138;2024-01-11T02:02:45;42.87;;;19.83;;
20084;SDS011;10202;48.474;9.138;2024-01-11T02:05:14;38.77;;;18.80;;
20084;SDS011;10202;48.474;9.138;2024-01-11T02:07:41;44.13;;;20.77;;
20084;SDS011;10202;48.474;9.138;2024-01-11T02:10:09;43.63;;;19.33;;
20084;SDS011;10202;48.474;9.138;2024-01-11T02:12:39;45.37;;;19.87;;
20084;SDS011;10202;48.474;9.138;2024-01-11T02:15:07;44.33;;;20.60;;
20084;SDS011;10202;48.474;9.138;2024-01-11T02:17:33;44.90;;;20.33;;
20084;SDS011;10202;48.474;9.138;2024-01-11T02:20:01;45.70;;;19.23;;
20084;SDS011;10202;48.474;9.138;2024-01-11T02:22:38;41.57;;;20.00;;
20084;SDS011;10202;48.474;9.138;2024-01-11T02:25:08;44.93;;;19.60;;
20084;SDS011;10202;48.474;9.138;2024-01-11T02:27:48;47.07;;;20.93;;
20084;SDS011;10202;48.474;9.138;2024-01-11T02:30:17;45.93;;;21.27;;
20084;SDS011;10202;48.474;9.138;2024-01-11T02:32:50;42.57;;;18.73;;
20084;SDS011;10202;48.474;9.138;2024-01-11T02:35:18;43.33;;;19.20;;
20084;SDS011;10202;48.474;9.138;2024-01-11T02:37:46;38.43;;;18.50;;
20084;SDS011;10202;48.474;9.138;2024-01-11T02:40:13;48.83;;;19.57;;
20084;SDS011;10202;48.474;9.138;2024-01-11T02:42:40;48.07;;;20.07;;
20084;SDS011;10202;48.474;9.138;2024-01-11T02:45:08;41.70;;;18.73;;
20084;SDS011;10202;48.474;9.138;2024-01-11T02:47:38;43.20;;;19.73;;
20084;SDS011;10202;48.474;9.138;2024-01-11T02:50:09;38.17;;;17.77;;
20084;SDS011;10202;48.474;9.138;2024-01-11T02:52:37;44.43;;;20.10;;
20084;SDS011;10202;48.474;9.138;2024-01-11T02:55:07;43.20;;;21.37;;
20084;SDS011;10202;48.474;9.138;2024-01-11T02:57:34;43.67;;;19.07;;
20084;SDS011;10202;48.474;9.138;2024-01-11T02:59:59;45.97;;;19.73;;
20084;SDS011;10202;48.474;9.138;2024-01-11T03:02:25;47.93;;;19.70;;
20084;SDS011;10202;48.474;9.138;2024-01-11T03:04:50;43.23;;;19.57;;
20084;SDS011;10202;48.474;9.138;2024-01-11T03:07:16;44.03;;;19.77;;
20084;SDS011;10202;48.474;9.138;2024-01-11T03:09:42;40.90;;;18.40;;
20084;SDS011;10202;48.474;9.138;2024-01-11T03:12:07;42.03;;;20.03;;
20084;SDS011;10202;48.474;9.138;2024-01-11T03:14:33;42.53;;;18.70;;
20084;SDS011;10202;48.474;9.138;2024-01-11T03:17:03;41.93;;;19.77;;
20084;SDS011;10202;48.474;9.138;2024-01-11T03:19:30;46.40;;;18.80;;
20084;SDS011;10202;48.474;9.138;2024-01-11T03:21:57;44.17;;;19.73;;
20084;SDS011;10202;48.474;9.138;2024-01-11T03:24:25;44.13;;;19.67;;
20084;SDS011;10202;48.474;9.138;2024-01-11T03:26:53;43.07;;;18.77;;
20084;SDS011;10202;48.474;9.138;2024-01-11T03:29:18;48.37;;;19.10;;
20084;SDS011;10202;48.474;9.138;2024-01-11T03:31:44;43.10;;;18.90;;
20084;SDS011;10202;48.474;9.138;2024-01-11T03:34:15;39.10;;;18.17;;
20084;SDS011;10202;48.474;9.138;2024-01-11T03:36:40;43.43;;;19.40;;
20084;SDS011;10202;48.474;9.138;2024-01-11T03:39:06;36.30;;;18.30;;
20084;SDS011;10202;48.474;9.138;2024-01-11T03:41:36;41.67;;;18.27;;
20084;SDS011;10202;48.474;9.138;2024-01-11T03:44:02;41.40;;;18.57;;
20084;SDS011;10202;48.474;9.138;2024-01-11T03:46:27;41.10;;;18.03;;
20084;SDS011;10202;48.474;9.138;2024-01-11T03:48:53;38.73;;;19.57;;
20084;SDS011;10202;48.474;9.138;2024-01-11T03:51:22;43.33;;;19.57;;
20084;SDS011;10202;48.474;9.138;2024-01-11T03:53:47;39.27;;;18.60;;
20084;SDS011;10202;48.474;9.138;2024-01-11T03:56:20;46.47;;;21.17;;
20084;SDS011;10202;48.474;9.138;2024-01-11T03:58:46;47.33;;;20.07;;
20084;SDS011;10202;48.474;9.138;2024-01-11T04:01:11;44.17;;;19.57;;
20084;SDS011;10202;48.474;9.138;2024-01-11T04:03:41;40.40;;;18.43;;
20084;SDS011;10202;48.474;9.138;2024-01-11T04:06:16;40.13;;;18.03;;
20084;SDS011;10202;48.474;9.138;2024-01-11T04:08:49;45.93;;;19.53;;
20084;SDS011;10202;48.474;9.138;2024-01-11T04:11:16;41.83;;;18.30;;
20084;SDS011;10202;48.474;9.138;2024-01-11T04:13:46;41.50;;;18.70;;
20084;SDS011;10202;48.474;9.138;2024-01-11T04:16:12;40.00;;;18.20;;
20084;SDS011;10202;48.474;9.138;2024-01-11T04:18:38;37.90;;;17.73;;
20084;SDS011;10202;48.474;9.138;2024-01-11T07:54:18;45.97;;;20.03;;
20084;SDS011;10202;48.474;9.138;2024-01-11T07:56:46;81.70;;;30.73;;
20084;SDS011;10202;48.474;9.138;2024-01-11T07:59:12;99.87;;;36.63;;
20084;SDS011;10202;48.474;9.138;2024-01-11T08:01:42;78.93;;;31.43;;
20084;SDS011;10202;48.474;9.138;2024-01-11T08:04:08;54.60;;;23.67;;
20084;SDS011;10202;48.474;9.138;2024-01-11T08:06:35;54.17;;;22.40;;
20084;SDS011;10202;48.474;9.138;2024-01-11T08:09:01;49.90;;;20.57;;
20084;SDS011;10202;48.474;9.138;2024-01-11T08:11:31;52.20;;;21.37;;
20084;SDS011;10202;48.474;9.138;2024-01-11T08:13:58;55.93;;;22.03;;
20084;SDS011;10202;48.474;9.138;2024-01-11T08:16:23;51.80;;;21.97;;
20084;SDS011;10202;48.474;9.138;2024-01-11T08:18:49;48.83;;;21.03;;
20084;SDS011;10202;48.474;9.138;2024-01-11T08:21:21;50.57;;;20.00;;
20084;SDS011;10202;48.474;9.138;2024-01-11T08:23:49;45.37;;;19.90;;
20084;SDS011;10202;48.474;9.138;2024-01-11T08:26:15;49.07;;;21.30;;
20084;SDS011;10202;48.474;9.138;2024-01-11T08:28:43;45.77;;;19.97;;
20084;SDS011;10202;48.474;9.138;2024-01-11T08:31:14;55.30;;;22.70;;
20084;SDS011;10202;48.474;9.138;2024-01-11T08:33:41;51.40;;;21.30;;
20084;SDS011;10202;48.474;9.138;2024-01-11T08:36:07;50.53;;;21.80;;
20084;SDS011;10202;48.474;9.138;2024-01-11T08:38:38;44.37;;;20.27;;
20084;SDS011;10202;48.474;9.138;2024-01-11T08:41:08;52.87;;;20.90;;
20084;SDS011;10202;48.474;9.138;2024-01-11T08:43:34;49.70;;;21.53;;
20084;SDS011;10202;48.474;9.138;2024-01-11T08:46:04;54.00;;;22.50;;
20084;SDS011;10202;48.474;9.138;2024-01-11T08:48:30;55.20;;;24.63;;
20084;SDS011;10202;48.474;9.138;2024-01-11T08:50:56;45.80;;;22.50;;
20084;SDS011;10202;48.474;9.138;2024-01-11T08:53:21;52.47;;;24.10;;
20084;SDS011;10202;48.474;9.138;2024-01-11T08:55:47;48.87;;;23.67;;
20084;SDS011;10202;48.474;9.138;2024-01-11T08:58:12;45.67;;;21.83;;
20084;SDS011;10202;48.474;9.138;2024-01-11T09:00:38;54.43;;;24.13;;
20084;SDS011;10202;48.474;9.138;2024-01-11T09:03:06;56.80;;;24.47;;
20084;SDS011;10202;48.474;9.138;2024-01-11T09:05:31;54.50;;;24.50;;
20084;SDS011;10202;48.474;9.138;2024-01-11T09:08:00;56.50;;;24.63;;
20084;SDS011;10202;48.474;9.138;2024-01-11T09:10:25;55.23;;;23.87;;
20084;SDS011;10202;48.474;9.138;2024-01-11T09:12:51;59.10;;;23.90;;
20084;SDS011;10202;48.474;9.138;2024-01-11T09:15:16;58.37;;;24.67;;
20084;SDS011;10202;48.474;9.138;2024-01-11T09:17:42;56.97;;;23.87;;
20084;SDS011;10202;48.474;9.138;2024-01-11T09:20:10;57.43;;;24.20;;
20084;SDS011;10202;48.474;9.138;2024-01-11T09:22:41;59.00;;;24.90;;
20084;SDS011;10202;48.474;9.138;2024-01-11T09:25:11;59.73;;;23.97;;
20084;SDS011;10202;48.474;9.138;2024-01-11T09:27:41;60.33;;;25.43;;
20084;SDS011;10202;48.474;9.138;2024-01-11T09:30:07;56.07;;;25.43;;
20084;SDS011;10202;48.474;9.138;2024-01-11T09:32:34;58.03;;;25.50;;
20084;SDS011;10202;48.474;9.138;2024-01-11T09:35:03;60.30;;;24.35;;
20084;SDS011;10202;48.474;9.138;2024-01-11T09:37:30;60.37;;;26.20;;
20084;SDS011;10202;48.474;9.138;2024-01-11T09:39:59;56.40;;;25.87;;
20084;SDS011;10202;48.474;9.138;2024-01-11T09:42:26;57.47;;;24.27;;
20084;SDS011;10202;48.474;9.138;2024-01-11T09:44:55;66.23;;;26.83;;
20084;SDS011;10202;48.474;9.138;2024-01-11T09:47:22;60.10;;;25.40;;
20084;SDS011;10202;48.474;9.138;2024-01-11T09:49:53;56.70;;;24.50;;
20084;SDS011;10202;48.474;9.138;2024-01-11T09:52:19;59.27;;;25.67;;
20084;SDS011;10202;48.474;9.138;2024-01-11T09:54:45;56.77;;;25.10;;
20084;SDS011;10202;48.474;9.138;2024-01-11T09:57:13;51.37;;;24.97;;
20084;SDS011;10202;48.474;9.138;2024-01-11T09:59:49;57.77;;;25.30;;
20084;SDS011;10202;48.474;9.138;2024-01-11T10:02:16;56.13;;;24.77;;
20084;SDS011;10202;48.474;9.138;2024-01-11T10:04:44;53.97;;;25.33;;
20084;SDS011;10202;48.474;9.138;2024-01-11T10:07:11;58.10;;;24.57;;
20084;SDS011;10202;48.474;9.138;2024-01-11T10:09:36;54.70;;;24.53;;
20084;SDS011;10202;48.474;9.138;2024-01-11T10:12:02;53.17;;;23.93;;
20084;SDS011;10202;48.474;9.138;2024-01-11T10:14:31;60.17;;;25.00;;
20084;SDS011;10202;48.474;9.138;2024-01-11T10:16:59;69.57;;;25.87;;
20084;SDS011;10202;48.474;9.138;2024-01-11T10:19:27;62.40;;;26.00;;
20084;SDS011;10202;48.474;9.138;2024-01-11T10:21:53;57.67;;;25.23;;
20084;SDS011;10202;48.474;9.138;2024-01-11T10:24:19;60.63;;;24.03;;
20084;SDS011;10202;48.474;9.138;2024-01-11T10:26:51;55.67;;;23.50;;
20084;SDS011;10202;48.474;9.138;2024-01-11T10:29:30;54.03;;;24.00;;
20084;SDS011;10202;48.474;9.138;2024-01-11T10:31:58;55.73;;;25.30;;
20084;SDS011;10202;48.474;9.138;2024-01-11T10:34:23;63.70;;;25.63;;
20084;SDS011;10202;48.474;9.138;2024-01-11T10:36:51;57.93;;;25.23;;
20084;SDS011;10202;48.474;9.138;2024-01-11T10:39:17;53.87;;;24.57;;
20084;SDS011;10202;48.474;9.138;2024-01-11T10:41:51;59.20;;;26.07;;
20084;SDS011;10202;48.474;9.138;2024-01-11T10:44:26;54.20;;;24.77;;
20084;SDS011;10202;48.474;9.138;2024-01-11T10:46:59;59.10;;;24.83;;
20084;SDS011;10202;48.474;9.138;2024-01-11T10:49:34;60.17;;;26.07;;
20084;SDS011;10202;48.474;9.138;2024-01-11T10:52:10;57.70;;;25.83;;
20084;SDS011;10202;48.474;9.138;2024-01-11T10:54:39;64.40;;;26.77;;
20084;SDS011;10202;48.474;9.138;2024-01-11T10:57:06;54.33;;;25.50;;
20084;SDS011;10202;48.474;9.138;2024-01-11T10:59:35;59.83;;;26.47;;
20084;SDS011;10202;48.474;9.138;2024-01-11T11:02:05;61.40;;;26.37;;
20084;SDS011;10202;48.474;9.138;2024-01-11T11:04:40;65.17;;;27.73;;
20084;SDS011;10202;48.474;9.138;2024-01-11T11:07:05;60.93;;;26.47;;
20084;SDS011;10202;48.474;9.138;2024-01-11T11:09:34;58.23;;;25.10;;
20084;SDS011;10202;48.474;9.138;2024-01-11T11:12:00;60.37;;;27.03;;
20084;SDS011;10202;48.474;9.138;2024-01-11T11:14:27;57.60;;;26.07;;
20084;SDS011;10202;48.474;9.138;2024-01-11T11:16:55;65.80;;;30.93;;
20084;SDS011;10202;48.474;9.138;2024-01-11T11:19:21;60.43;;;28.13;;
20084;SDS011;10202;48.474;9.138;2024-01-11T11:21:47;73.20;;;34.80;;
20084;SDS011;10202;48.474;9.138;2024-01-11T11:24:19;60.53;;;27.97;;
20084;SDS011;10202;48.474;9.138;2024-01-11T11:26:49;62.87;;;26.83;;
20084;SDS011;10202;48.474;9.138;2024-01-11T11:29:17;59.43;;;26.10;;
20084;SDS011;10202;48.474;9.138;2024-01-11T11:31:45;55.67;;;26.10;;
20084;SDS011;10202;48.474;9.138;2024-01-11T11:34:13;62.07;;;26.60;;
20084;SDS011;10202;48.474;9.138;2024-01-11T11:36:39;60.30;;;26.83;;
20084;SDS011;10202;48.474;9.138;2024-01-11T11:39:09;61.60;;;27.87;;
20084;SDS011;10202;48.474;9.138;2024-01-11T11:41:38;57.67;;;25.97;;
20084;SDS011;10202;48.474;9.138;2024-01-11T11:44:06;70.33;;;28.37;;
20084;SDS011;10202;48.474;9.138;2024-01-11T11:46:32;60.13;;;27.37;;
20084;SDS011;10202;48.474;9.138;2024-01-11T11:48:58;59.97;;;27.47;;
20084;SDS011;10202;48.474;9.138;2024-01-11T11:51:26;62.30;;;25.97;;
20084;SDS011;10202;48.474;9.138;2024-01-11T11:53:53;64.77;;;28.23;;
20084;SDS011;10202;48.474;9.138;2024-01-11T11:56:23;54.17;;;25.67;;
20084;SDS011;10202;48.474;9.138;2024-01-11T11:58:54;62.17;;;28.27;;
20084;SDS011;10202;48.474;9.138;2024-01-11T12:01:22;57.47;;;26.73;;
20084;SDS011;10202;48.474;9.138;2024-01-11T12:03:47;59.60;;;28.40;;
20084;SDS011;10202;48.474;9.138;2024-01-11T12:06:17;61.93;;;27.80;;
20084;SDS011;10202;48.474;9.138;2024-01-11T12:08:46;59.77;;;27.27;;
20084;SDS011;10202;48.474;9.138;2024-01-11T12:11:17;58.10;;;26.07;;
20084;SDS011;10202;48.474;9.138;2024-01-11T12:13:47;62.20;;;29.73;;
20084;SDS011;10202;48.474;9.138;2024-01-11T12:16:14;62.70;;;27.33;;
20084;SDS011;10202;48.474;9.138;2024-01-11T12:18:42;59.43;;;27.17;;
20084;SDS011;10202;48.474;9.138;2024-01-11T12:21:10;56.90;;;27.03;;
20084;SDS011;10202;48.474;9.138;2024-01-11T12:23:39;61.30;;;27.37;;
20084;SDS011;10202;48.474;9.138;2024-01-11T12:26:10;55.67;;;25.70;;
20084;SDS011;10202;48.474;9.138;2024-01-11T12:28:38;58.97;;;26.83;;
20084;SDS011;10202;48.474;9.138;2024-01-11T12:31:07;54.80;;;24.50;;
20084;SDS011;10202;48.474;9.138;2024-01-11T12:33:37;57.73;;;27.63;;
20084;SDS011;10202;48.474;9.138;2024-01-11T12:36:08;57.87;;;25.87;;
20084;SDS011;10202;48.474;9.138;2024-01-11T12:38:40;55.77;;;26.17;;
20084;SDS011;10202;48.474;9.138;2024-01-11T12:41:14;60.90;;;27.97;;
20084;SDS011;10202;48.474;9.138;2024-01-11T12:43:42;61.43;;;28.23;;
20084;SDS011;10202;48.474;9.138;2024-01-11T12:46:08;54.77;;;26.53;;
20084;SDS011;10202;48.474;9.138;2024-01-11T12:48:34;56.97;;;27.23;;
20084;SDS011;10202;48.474;9.138;2024-01-11T12:50:59;55.60;;;25.70;;
20084;SDS011;10202;48.474;9.138;2024-01-11T12:53:28;59.73;;;26.80;;
20084;SDS011;10202;48.474;9.138;2024-01-11T12:56:06;56.10;;;26.73;;
20084;SDS011;10202;48.474;9.138;2024-01-11T12:58:38;62.17;;;27.10;;
20084;SDS011;10202;48.474;9.138;2024-01-11T13:01:09;62.33;;;27.70;;
20084;SDS011;10202;48.474;9.138;2024-01-11T13:03:39;74.50;;;31.93;;
20084;SDS011;10202;48.474;9.138;2024-01-11T13:06:15;63.63;;;27.67;;
20084;SDS011;10202;48.474;9.138;2024-01-11T13:08:43;53.00;;;26.63;;
20084;SDS011;10202;48.474;9.138;2024-01-11T13:11:10;57.07;;;25.80;;
20084;SDS011;10202;48.474;9.138;2024-01-11T13:13:43;59.27;;;27.20;;
20084;SDS011;10202;48.474;9.138;2024-01-11T13:16:11;58.07;;;27.37;;
20084;SDS011;10202;48.474;9.138;2024-01-11T13:18:41;69.07;;;27.87;;
20084;SDS011;10202;48.474;9.138;2024-01-11T13:21:07;57.60;;;27.47;;
20084;SDS011;10202;48.474;9.138;2024-01-11T13:23:37;60.47;;;27.40;;
20084;SDS011;10202;48.474;9.138;2024-01-11T13:26:03;55.50;;;26.37;;
20084;SDS011;10202;48.474;9.138;2024-01-11T13:28:29;78.27;;;40.27;;
20084;SDS011;10202;48.474;9.138;2024-01-11T13:31:00;63.93;;;30.37;;
20084;SDS011;10202;48.474;9.138;2024-01-11T13:33:28;68.07;;;31.17;;
20084;SDS011;10202;48.474;9.138;2024-01-11T13:35:56;63.80;;;27.70;;
20084;SDS011;10202;48.474;9.138;2024-01-11T13:38:26;58.20;;;27.30;;
20084;SDS011;10202;48.474;9.138;2024-01-11T13:40:52;63.67;;;29.77;;
20084;SDS011;10202;48.474;9.138;2024-01-11T13:43:19;64.40;;;27.73;;
20084;SDS011;10202;48.474;9.138;2024-01-11T13:45:48;58.50;;;26.87;;
20084;SDS011;10202;48.474;9.138;2024-01-11T13:48:16;58.07;;;27.20;;
20084;SDS011;10202;48.474;9.138;2024-01-11T13:50:44;65.47;;;28.50;;
20084;SDS011;10202;48.474;9.138;2024-01-11T13:53:14;53.83;;;25.63;;
20084;SDS011;10202;48.474;9.138;2024-01-11T13:55:41;59.90;;;28.47;;
20084;SDS011;10202;48.474;9.138;2024-01-11T13:58:09;56.87;;;27.57;;
20084;SDS011;10202;48.474;9.138;2024-01-11T14:00:34;63.60;;;28.13;;
20084;SDS011;10202;48.474;9.138;2024-01-11T14:03:07;64.00;;;27.07;;
20084;SDS011;10202;48.474;9.138;2024-01-11T14:05:39;60.83;;;27.03;;
20084;SDS011;10202;48.474;9.138;2024-01-11T14:08:04;56.93;;;28.00;;
20084;SDS011;10202;48.474;9.138;2024-01-11T14:10:32;61.20;;;28.33;;
20084;SDS011;10202;48.474;9.138;2024-01-11T14:13:01;58.83;;;27.73;;
20084;SDS011;10202;48.474;9.138;2024-01-11T14:15:31;60.97;;;27.50;;
20084;SDS011;10202;48.474;9.138;2024-01-11T14:17:57;63.37;;;28.57;;
20084;SDS011;10202;48.474;9.138;2024-01-11T14:20:22;59.10;;;28.10;;
20084;SDS011;10202;48.474;9.138;2024-01-11T14:22:49;57.73;;;26.77;;
20084;SDS011;10202;48.474;9.138;2024-01-11T14:25:18;57.60;;;26.93;;
20084;SDS011;10202;48.474;9.138;2024-01-11T14:27:45;59.23;;;28.20;;
20084;SDS011;10202;48.474;9.138;2024-01-11T14:30:14;54.10;;;26.07;;
20084;SDS011;10202;48.474;9.138;2024-01-11T14:32:43;57.20;;;26.43;;
20084;SDS011;10202;48.474;9.138;2024-01-11T14:35:11;62.80;;;28.33;;
20084;SDS011;10202;48.474;9.138;2024-01-11T14:37:37;62.83;;;27.00;;
20084;SDS011;10202;48.474;9.138;2024-01-11T14:40:08;62.43;;;27.20;;
20084;SDS011;10202;48.474;9.138;2024-01-11T14:42:40;63.77;;;29.20;;
20084;SDS011;10202;48.474;9.138;2024-01-11T14:45:08;63.20;;;27.97;;
20084;SDS011;10202;48.474;9.138;2024-01-11T14:47:41;60.73;;;26.57;;
20084;SDS011;10202;48.474;9.138;2024-01-11T14:50:09;56.93;;;27.30;;
20084;SDS011;10202;48.474;9.138;2024-01-11T14:52:35;63.07;;;28.07;;
20084;SDS011;10202;48.474;9.138;2024-01-11T14:55:04;57.10;;;27.70;;
20084;SDS011;10202;48.474;9.138;2024-01-11T14:57:35;53.00;;;27.70;;
20084;SDS011;10202;48.474;9.138;2024-01-11T15:00:04;59.00;;;27.77;;
20084;SDS011;10202;48.474;9.138;2024-01-11T15:02:33;55.97;;;27.23;;
20084;SDS011;10202;48.474;9.138;2024-01-11T15:04:59;65.07;;;28.00;;
20084;SDS011;10202;48.474;9.138;2024-01-11T15:07:25;62.80;;;28.17;;
20084;SDS011;10202;48.474;9.138;2024-01-11T15:09:53;57.00;;;28.30;;
20084;SDS011;10202;48.474;9.138;2024-01-11T15:12:21;58.60;;;28.00;;
20084;SDS011;10202;48.474;9.138;2024-01-11T15:14:47;57.13;;;27.50;;
20084;SDS011;10202;48.474;9.138;2024-01-11T15:17:16;66.83;;;29.30;;
20084;SDS011;10202;48.474;9.138;2024-01-11T15:19:45;63.20;;;27.43;;
20084;SDS011;10202;48.474;9.138;2024-01-11T15:22:13;55.10;;;27.37;;
20084;SDS011;10202;48.474;9.138;2024-01-11T15:24:41;55.33;;;26.80;;
20084;SDS011;10202;48.474;9.138;2024-01-11T15:27:09;54.83;;;26.40;;
20084;SDS011;10202;48.474;9.138;2024-01-11T15:29:35;54.53;;;26.80;;
20084;SDS011;10202;48.474;9.138;2024-01-11T15:32:05;57.20;;;26.60;;
20084;SDS011;10202;48.474;9.138;2024-01-11T15:34:30;63.23;;;28.70;;
20084;SDS011;10202;48.474;9.138;2024-01-11T15:36:56;65.50;;;29.03;;
20084;SDS011;10202;48.474;9.138;2024-01-11T15:39:27;58.13;;;27.83;;
20084;SDS011;10202;48.474;9.138;2024-01-11T15:41:55;84.77;;;38.90;;
20084;SDS011;10202;48.474;9.138;2024-01-11T15:44:20;82.20;;;36.63;;
20084;SDS011;10202;48.474;9.138;2024-01-11T15:46:47;73.63;;;35.07;;
20084;SDS011;10202;48.474;9.138;2024-01-11T15:49:13;58.77;;;27.27;;
20084;SDS011;10202;48.474;9.138;2024-01-11T15:51:38;58.03;;;27.83;;
20084;SDS011;10202;48.474;9.138;2024-01-11T15:54:06;57.13;;;26.90;;
20084;SDS011;10202;48.474;9.138;2024-01-11T15:56:36;57.20;;;26.50;;
20084;SDS011;10202;48.474;9.138;2024-01-11T15:59:02;79.87;;;35.03;;
20084;SDS011;10202;48.474;9.138;2024-01-11T16:01:28;76.70;;;31.50;;
20084;SDS011;10202;48.474;9.138;2024-01-11T16:03:54;65.27;;;30.70;;
20084;SDS011;10202;48.474;9.138;2024-01-11T16:06:22;65.87;;;28.60;;
20084;SDS011;10202;48.474;9.138;2024-01-11T16:08:48;59.70;;;27.70;;
20084;SDS011;10202;48.474;9.138;2024-01-11T16:11:13;62.53;;;28.57;;
20084;SDS011;10202;48.474;9.138;2024-01-11T16:13:42;63.63;;;29.67;;
20084;SDS011;10202;48.474;9.138;2024-01-11T16:16:11;62.87;;;30.13;;
20084;SDS011;10202;48.474;9.138;2024-01-11T16:18:37;66.87;;;32.97;;
20084;SDS011;10202;48.474;9.138;2024-01-11T16:21:03;69.33;;;31.53;;
20084;SDS011;10202;48.474;9.138;2024-01-11T16:23:34;66.70;;;31.57;;
20084;SDS011;10202;48.474;9.138;2024-01-11T16:26:08;61.37;;;28.90;;
20084;SDS011;10202;48.474;9.138;2024-01-11T16:28:35;59.57;;;28.30;;
20084;SDS011;10202;48.474;9.138;2024-01-11T16:31:04;59.45;;;27.75;;
20084;SDS011;10202;48.474;9.138;2024-01-11T16:33:32;60.40;;;28.20;;
20084;SDS011;10202;48.474;9.138;2024-01-11T16:35:59;65.80;;;28.77;;
20084;SDS011;10202;48.474;9.138;2024-01-11T16:38:27;57.83;;;28.03;;
20084;SDS011;10202;48.474;9.138;2024-01-11T16:40:58;56.73;;;27.73;;
20084;SDS011;10202;48.474;9.138;2024-01-11T16:43:23;60.13;;;28.10;;
20084;SDS011;10202;48.474;9.138;2024-01-11T16:45:51;55.80;;;26.37;;
20084;SDS011;10202;48.474;9.138;2024-01-11T16:48:16;67.07;;;32.63;;
20084;SDS011;10202;48.474;9.138;2024-01-11T16:50:44;74.97;;;36.20;;
20084;SDS011;10202;48.474;9.138;2024-01-11T16:53:12;65.47;;;30.80;;
20084;SDS011;10202;48.474;9.138;2024-01-11T16:55:37;65.87;;;30.23;;
20084;SDS011;10202;48.474;9.138;2024-01-11T16:58:06;69.57;;;31.93;;
20084;SDS011;10202;48.474;9.138;2024-01-11T17:00:33;67.17;;;31.17;;
20084;SDS011;10202;48.474;9.138;2024-01-11T17:03:01;70.17;;;32.27;;
20084;SDS011;10202;48.474;9.138;2024-01-11T17:05:29;65.87;;;31.47;;
20084;SDS011;10202;48.474;9.138;2024-01-11T17:07:57;76.03;;;34.13;;
20084;SDS011;10202;48.474;9.138;2024-01-11T17:10:23;85.63;;;37.83;;
20084;SDS011;10202;48.474;9.138;2024-01-11T17:12:48;71.70;;;31.73;;
20084;SDS011;10202;48.474;9.138;2024-01-11T17:15:16;74.47;;;30.13;;
20084;SDS011;10202;48.474;9.138;2024-01-11T17:17:46;62.97;;;30.67;;
20084;SDS011;10202;48.474;9.138;2024-01-11T17:20:14;66.90;;;31.30;;
20084;SDS011;10202;48.474;9.138;2024-01-11T17:22:41;75.27;;;33.30;;
20084;SDS011;10202;48.474;9.138;2024-01-11T17:25:07;75.47;;;33.97;;
20084;SDS011;10202;48.474;9.138;2024-01-11T17:27:35;79.20;;;36.57;;
20084;SDS011;10202;48.474;9.138;2024-01-11T17:30:05;74.97;;;36.80;;
20084;SDS011;10202;48.474;9.138;2024-01-11T17:32:34;84.23;;;37.23;;
20084;SDS011;10202;48.474;9.138;2024-01-11T17:35:00;69.40;;;32.83;;
20084;SDS011;10202;48.474;9.138;2024-01-11T17:37:28;90.57;;;42.73;;
20084;SDS011;10202;48.474;9.138;2024-01-11T17:40:02;88.03;;;39.67;;
20084;SDS011;10202;48.474;9.138;2024-01-11T17:42:30;92.60;;;43.47;;
20084;SDS011;10202;48.474;9.138;2024-01-11T17:45:02;87.60;;;41.47;;
20084;SDS011;10202;48.474;9.138;2024-01-11T17:47:31;69.43;;;33.37;;
20084;SDS011;10202;48.474;9.138;2024-01-11T17:49:56;64.17;;;29.03;;
20084;SDS011;10202;48.474;9.138;2024-01-11T17:52:24;65.83;;;30.60;;
20084;SDS011;10202;48.474;9.138;2024-01-11T17:54:50;66.27;;;30.00;;
20084;SDS011;10202;48.474;9.138;2024-01-11T17:57:15;66.07;;;30.23;;
20084;SDS011;10202;48.474;9.138;2024-01-11T17:59:44;67.83;;;30.57;;